createdAt,value
2022-12-22T00:00:23.900Z,0.57
2022-12-22T00:03:09.318Z,0.60
2022-12-22T00:05:54.540Z,0.50
2022-12-22T00:08:39.783Z,1.43
2022-12-22T00:11:30.411Z,1.33
2022-12-22T00:14:16.552Z,0.80
2022-12-22T00:17:02.479Z,1.03
2022-12-22T00:19:48.718Z,0.63
2022-12-22T00:22:40.931Z,0.50
2022-12-22T00:25:32.611Z,0.97
2022-12-22T00:28:17.879Z,0.90
2022-12-22T00:31:05.099Z,0.60
2022-12-22T00:33:50.467Z,1.80
2022-12-22T00:36:37.013Z,0.63
2022-12-22T00:39:29.178Z,0.40
2022-12-22T00:42:14.615Z,0.67
2022-12-22T00:44:59.901Z,0.50
2022-12-22T00:47:49.178Z,1.30
2022-12-22T00:50:35.349Z,0.50
2022-12-22T00:53:22.832Z,0.70
2022-12-22T00:56:08.547Z,1.17
2022-12-22T00:58:54.240Z,0.60
2022-12-22T01:01:39.538Z,0.50
2022-12-22T01:04:28.032Z,0.87
2022-12-22T01:07:13.771Z,0.70
2022-12-22T01:10:08.284Z,0.50
2022-12-22T01:12:58.319Z,0.50
2022-12-22T01:15:45.241Z,1.13
2022-12-22T01:18:31.083Z,0.40
2022-12-22T01:21:16.848Z,0.50
2022-12-22T01:24:03.098Z,0.57
2022-12-22T01:26:49.196Z,0.60
2022-12-22T01:29:34.548Z,0.50
2022-12-22T01:32:19.722Z,0.60
2022-12-22T01:35:05.103Z,5.73
2022-12-22T01:37:50.149Z,1.50
2022-12-22T01:40:40.293Z,1.10
2022-12-22T01:43:43.725Z,1.20
2022-12-22T01:46:52.043Z,1.40
2022-12-22T01:50:00.783Z,0.70
2022-12-22T01:52:52.107Z,1.23
2022-12-22T01:55:42.841Z,0.90
2022-12-22T01:58:42.559Z,1.67
2022-12-22T02:01:27.857Z,2.00
2022-12-22T02:04:13.371Z,1.23
2022-12-22T02:07:03.737Z,0.50
2022-12-22T02:10:00.964Z,0.50
2022-12-22T02:13:09.652Z,0.60
2022-12-22T02:16:17.771Z,0.60
2022-12-22T02:19:41.302Z,0.40
2022-12-22T02:23:01.696Z,1.00
2022-12-22T02:26:02.195Z,0.93
2022-12-22T02:28:51.536Z,0.43
2022-12-22T02:31:38.074Z,0.50
2022-12-22T02:34:23.609Z,0.50
2022-12-22T02:37:35.259Z,0.50
2022-12-22T02:40:40.638Z,0.50
2022-12-22T02:43:49.219Z,0.60
2022-12-22T02:46:52.326Z,0.63
2022-12-22T02:49:55.252Z,3.60
2022-12-22T02:52:50.508Z,0.60
2022-12-22T02:55:36.902Z,1.70
2022-12-22T02:58:22.260Z,0.63
2022-12-22T03:01:08.717Z,0.93
2022-12-22T03:03:54.886Z,0.70
2022-12-22T03:06:40.137Z,0.50
2022-12-22T03:09:25.514Z,0.57
2022-12-22T03:12:10.891Z,1.37
2022-12-22T03:14:55.971Z,0.60
2022-12-22T03:17:41.493Z,1.47
2022-12-22T03:20:27.563Z,0.60
2022-12-22T03:23:13.182Z,2.73
2022-12-22T03:25:54.866Z,4.33
2022-12-22T03:28:26.058Z,0.53
2022-12-22T03:31:05.178Z,2.77
2022-12-22T03:33:32.255Z,0.47
2022-12-22T03:36:00.307Z,0.50
2022-12-22T03:38:27.954Z,0.97
2022-12-22T03:40:55.415Z,1.70
2022-12-22T03:43:41.180Z,1.00
2022-12-22T03:46:31.028Z,1.37
2022-12-22T03:49:10.285Z,0.77
2022-12-22T03:51:49.008Z,2.67
2022-12-22T03:54:22.511Z,3.67
2022-12-22T03:56:50.532Z,2.97
2022-12-22T03:59:18.945Z,3.90
2022-12-22T04:01:52.866Z,2.00
2022-12-22T04:04:25.023Z,1.53
2022-12-22T04:06:52.841Z,0.60
2022-12-22T04:09:19.968Z,0.50
2022-12-22T04:12:05.517Z,0.57
2022-12-22T04:14:34.728Z,2.23
2022-12-22T04:17:04.034Z,0.90
2022-12-22T04:19:31.932Z,0.60
2022-12-22T04:21:58.915Z,2.33
2022-12-22T04:24:25.675Z,0.70
2022-12-22T04:26:52.677Z,5.87
2022-12-22T04:29:19.420Z,1.63
2022-12-22T04:31:46.187Z,0.70
2022-12-22T04:34:12.989Z,1.83
2022-12-22T04:36:39.822Z,1.27
2022-12-22T04:39:06.580Z,0.77
2022-12-22T04:41:33.330Z,1.23
2022-12-22T04:44:00.115Z,0.83
2022-12-22T04:46:26.847Z,2.70
2022-12-22T04:48:59.550Z,0.87
2022-12-22T04:51:28.201Z,3.07
2022-12-22T04:53:54.931Z,5.60
2022-12-22T04:56:21.833Z,1.10
2022-12-22T04:58:48.581Z,0.80
2022-12-22T05:01:18.721Z,2.77
2022-12-22T05:03:46.217Z,8.07
2022-12-22T05:06:14.128Z,2.53
2022-12-22T05:08:41.782Z,5.77
2022-12-22T05:11:08.726Z,3.07
2022-12-22T05:13:35.495Z,1.40
2022-12-22T05:16:06.539Z,1.77
2022-12-22T05:18:35.466Z,0.90
2022-12-22T05:21:09.241Z,1.57
2022-12-22T05:23:35.972Z,2.23
2022-12-22T05:26:03.399Z,1.37
2022-12-22T05:28:30.176Z,1.93
2022-12-22T05:30:56.946Z,2.37
2022-12-22T05:33:23.821Z,1.73
2022-12-22T05:35:50.528Z,1.77
2022-12-22T05:38:17.301Z,2.87
2022-12-22T05:40:44.023Z,2.17
2022-12-22T05:43:10.839Z,2.80
2022-12-22T05:45:37.757Z,2.47
2022-12-22T05:48:04.919Z,3.70
2022-12-22T05:50:32.642Z,2.10
2022-12-22T05:52:59.743Z,2.47
2022-12-22T05:55:26.500Z,3.17
2022-12-22T05:57:53.289Z,2.17
2022-12-22T06:00:20.892Z,3.37
2022-12-22T06:02:47.745Z,3.47
2022-12-22T06:05:15.456Z,6.70
2022-12-22T06:07:42.604Z,7.03
2022-12-22T06:10:12.769Z,10.20
2022-12-22T06:12:40.908Z,5.97
2022-12-22T06:15:11.404Z,7.90
2022-12-22T06:17:44.441Z,3.50
2022-12-22T06:20:12.825Z,3.33
2022-12-22T06:22:39.573Z,2.70
2022-12-22T06:25:06.950Z,3.47
2022-12-22T06:27:33.784Z,2.93
2022-12-22T06:30:00.542Z,3.07
2022-12-22T06:32:27.296Z,2.77
2022-12-22T06:34:54.083Z,2.80
2022-12-22T06:37:20.794Z,2.80
2022-12-22T06:39:47.589Z,4.13
2022-12-22T06:42:32.620Z,3.50
2022-12-22T06:44:59.417Z,3.50
2022-12-22T06:47:26.167Z,3.80
2022-12-22T06:49:52.953Z,4.10
2022-12-22T06:52:19.668Z,4.57
2022-12-22T06:54:46.417Z,5.10
2022-12-22T06:57:13.267Z,4.70
2022-12-22T06:59:40.053Z,5.43
2022-12-22T07:02:07.277Z,6.70
2022-12-22T07:04:34.059Z,5.53
2022-12-22T07:07:00.839Z,4.57
2022-12-22T07:09:27.611Z,5.27
2022-12-22T07:11:54.414Z,6.57
2022-12-22T07:14:21.399Z,5.97
2022-12-22T07:16:48.249Z,5.50
2022-12-22T07:19:15.122Z,5.87
2022-12-22T07:21:41.847Z,5.40
2022-12-22T07:24:09.033Z,5.50
2022-12-22T07:26:35.733Z,6.40
2022-12-22T07:29:02.459Z,5.23
2022-12-22T07:31:29.182Z,5.77
2022-12-22T07:33:55.937Z,6.57
2022-12-22T07:36:22.686Z,8.70
2022-12-22T07:38:51.860Z,5.73
2022-12-22T07:41:38.788Z,7.30
2022-12-22T07:44:05.776Z,6.53
2022-12-22T07:46:36.977Z,6.90
2022-12-22T07:49:23.781Z,8.70
2022-12-22T07:51:51.597Z,8.37
2022-12-22T07:54:18.694Z,8.10
2022-12-22T07:56:46.977Z,7.77
2022-12-22T07:59:14.537Z,8.10
2022-12-22T08:01:41.897Z,8.80
2022-12-22T08:04:10.150Z,6.97
2022-12-22T08:06:37.612Z,11.63
2022-12-22T08:09:06.554Z,11.70
2022-12-22T08:11:34.212Z,10.53
2022-12-22T08:14:02.136Z,9.10
2022-12-22T08:16:29.554Z,9.60
2022-12-22T08:18:56.993Z,8.67
2022-12-22T08:21:24.024Z,12.10
2022-12-22T08:23:51.252Z,10.13
2022-12-22T08:26:38.846Z,10.60
2022-12-22T08:29:16.043Z,11.77
2022-12-22T08:31:43.860Z,12.83
2022-12-22T08:34:15.562Z,14.50
2022-12-22T08:36:49.052Z,15.43
2022-12-22T08:39:18.974Z,16.17
2022-12-22T08:41:51.751Z,18.17
2022-12-22T08:44:28.626Z,16.93
2022-12-22T08:46:59.574Z,16.83
2022-12-22T08:49:26.852Z,13.97
2022-12-22T08:51:54.609Z,14.53
2022-12-22T08:54:21.597Z,14.63
2022-12-22T08:56:49.689Z,13.90
2022-12-22T08:59:16.918Z,14.40
2022-12-22T09:01:48.132Z,12.90
2022-12-22T09:04:19.320Z,12.40
2022-12-22T09:06:46.280Z,11.87
2022-12-22T09:09:15.117Z,11.90
2022-12-22T09:11:42.568Z,11.67
2022-12-22T09:14:11.378Z,11.00
2022-12-22T09:16:39.614Z,13.57
2022-12-22T09:19:07.695Z,11.27
2022-12-22T09:21:35.448Z,13.63
2022-12-22T09:24:03.278Z,13.40
2022-12-22T09:26:30.356Z,15.10
2022-12-22T09:28:58.021Z,15.30
2022-12-22T09:31:26.451Z,13.93
2022-12-22T09:33:53.699Z,15.27
2022-12-22T09:36:24.763Z,14.27
2022-12-22T09:38:51.756Z,16.47
2022-12-22T09:41:25.764Z,14.50
2022-12-22T09:43:52.544Z,17.37
2022-12-22T09:46:26.948Z,15.17
2022-12-22T09:48:54.897Z,16.23
2022-12-22T09:51:26.997Z,20.57
2022-12-22T09:53:59.612Z,18.17
2022-12-22T09:56:29.141Z,18.70
2022-12-22T09:58:56.588Z,20.83
2022-12-22T10:01:46.508Z,17.03
2022-12-22T10:04:54.432Z,16.37
2022-12-22T10:07:34.403Z,16.63
2022-12-22T10:10:16.936Z,17.70
2022-12-22T10:12:43.626Z,17.13
2022-12-22T10:15:15.607Z,18.17
2022-12-22T10:17:45.297Z,15.70
2022-12-22T10:20:26.238Z,19.83
2022-12-22T10:23:00.181Z,17.07
2022-12-22T10:28:36.589Z,13.10
2022-12-22T10:31:25.841Z,14.60
2022-12-22T10:33:57.816Z,17.40
2022-12-22T10:36:32.381Z,21.83
2022-12-22T10:39:09.784Z,16.70
2022-12-22T10:41:49.833Z,17.83
2022-12-22T10:44:16.523Z,17.67
2022-12-22T10:46:51.301Z,17.30
2022-12-22T10:52:30.439Z,20.53
2022-12-22T10:55:22.386Z,15.53
2022-12-22T10:57:50.428Z,17.63
2022-12-22T11:00:30.080Z,15.60
2022-12-22T11:03:00.938Z,15.10
2022-12-22T11:05:28.829Z,14.40
2022-12-22T11:07:56.349Z,14.60
2022-12-22T11:10:27.667Z,13.97
2022-12-22T11:13:21.743Z,13.70
2022-12-22T11:16:17.884Z,17.53
2022-12-22T11:19:03.619Z,15.83
2022-12-22T11:22:02.904Z,17.40
2022-12-22T11:25:21.863Z,16.13
2022-12-22T11:28:36.068Z,16.23
2022-12-22T11:31:59.078Z,17.03
2022-12-22T11:35:09.295Z,17.03
2022-12-22T11:37:49.466Z,18.50
2022-12-22T11:40:52.992Z,18.43
2022-12-22T11:43:27.614Z,17.20
2022-12-22T11:46:14.297Z,17.67
2022-12-22T11:49:24.133Z,18.20
2022-12-22T11:52:37.722Z,16.63
2022-12-22T11:55:52.686Z,18.80
2022-12-22T11:58:59.272Z,13.30
2022-12-22T12:02:08.823Z,13.37
2022-12-22T12:04:54.343Z,13.90
2022-12-22T12:07:41.204Z,14.07
2022-12-22T12:10:44.753Z,11.90
2022-12-22T12:14:07.515Z,13.20
2022-12-22T12:17:06.030Z,11.10
2022-12-22T12:20:12.964Z,12.10
2022-12-22T12:23:31.524Z,15.00
2022-12-22T12:26:21.508Z,11.40
2022-12-22T12:29:03.597Z,10.93
2022-12-22T12:31:43.809Z,11.23
2022-12-22T12:34:15.851Z,9.10
2022-12-22T12:37:07.964Z,9.27
2022-12-22T12:40:15.345Z,8.73
2022-12-22T12:42:46.760Z,9.40
2022-12-22T12:45:45.586Z,10.27
2022-12-22T12:48:21.218Z,8.90
2022-12-22T12:50:58.194Z,8.80
2022-12-22T12:53:27.881Z,8.80
2022-12-22T12:56:04.865Z,9.33
2022-12-22T12:58:37.660Z,8.40
2022-12-22T13:01:12.516Z,8.57
2022-12-22T13:06:52.082Z,10.00
2022-12-22T13:09:49.743Z,8.80
2022-12-22T13:12:39.866Z,9.00
2022-12-22T13:15:34.855Z,10.23
2022-12-22T13:18:09.622Z,8.07
2022-12-22T13:20:37.802Z,7.10
2022-12-22T13:23:15.120Z,7.27
2022-12-22T13:25:59.128Z,6.33
2022-12-22T13:28:27.884Z,6.47
2022-12-22T13:31:07.994Z,5.00
2022-12-22T13:33:40.084Z,3.03
2022-12-22T13:36:18.445Z,3.33
2022-12-22T13:38:45.808Z,2.43
2022-12-22T13:41:26.852Z,3.40
2022-12-22T13:44:04.054Z,2.50
2022-12-22T13:46:36.011Z,2.50
2022-12-22T13:49:04.881Z,2.53
2022-12-22T13:51:37.376Z,2.50
2022-12-22T13:54:24.745Z,2.67
2022-12-22T13:56:56.595Z,2.40
2022-12-22T13:59:26.062Z,4.50
2022-12-22T14:02:18.623Z,2.87
2022-12-22T14:05:08.751Z,3.37
2022-12-22T14:07:35.867Z,3.30
2022-12-22T14:10:02.730Z,2.93
2022-12-22T14:12:44.466Z,3.33
2022-12-22T14:15:18.918Z,2.97
2022-12-22T14:17:52.166Z,3.03
2022-12-22T14:20:36.298Z,2.50
2022-12-22T14:23:18.725Z,2.53
2022-12-22T14:25:48.370Z,3.37
2022-12-22T14:28:43.149Z,1.43
2022-12-22T14:31:13.379Z,1.47
2022-12-22T14:33:56.612Z,1.50
2022-12-22T14:36:27.352Z,2.87
2022-12-22T14:39:00.053Z,1.50
2022-12-22T14:41:51.592Z,5.23
2022-12-22T14:44:20.645Z,2.63
2022-12-22T14:47:16.081Z,1.47
2022-12-22T14:49:52.020Z,1.37
2022-12-22T14:52:37.523Z,1.00
2022-12-22T14:55:20.711Z,1.20
2022-12-22T14:58:10.045Z,2.53
2022-12-22T15:00:45.075Z,2.13
2022-12-22T15:03:34.997Z,1.43
2022-12-22T15:06:27.348Z,1.20
2022-12-22T15:09:14.338Z,0.93
2022-12-22T15:11:52.957Z,0.90
2022-12-22T15:14:24.730Z,0.90
2022-12-22T15:16:57.296Z,2.23
2022-12-22T15:19:24.360Z,1.07
2022-12-22T15:21:51.780Z,1.97
2022-12-22T15:24:19.348Z,1.53
2022-12-22T15:26:46.931Z,1.20
2022-12-22T15:29:14.322Z,1.53
2022-12-22T15:31:42.942Z,0.90
2022-12-22T15:34:31.381Z,0.90
2022-12-22T15:36:58.324Z,0.90
2022-12-22T15:39:25.062Z,1.07
2022-12-22T15:41:51.868Z,1.57
2022-12-22T15:44:18.865Z,2.20
2022-12-22T15:46:55.263Z,1.30
2022-12-22T15:49:27.004Z,1.70
2022-12-22T15:51:58.987Z,2.43
2022-12-22T15:54:27.965Z,3.97
2022-12-22T15:56:55.786Z,2.53
2022-12-22T15:59:28.699Z,2.07
2022-12-22T16:02:02.008Z,3.40
2022-12-22T16:04:29.685Z,4.13
2022-12-22T16:06:58.496Z,2.70
2022-12-22T16:09:32.671Z,6.23
2022-12-22T16:11:59.396Z,4.83
2022-12-22T16:14:26.193Z,6.30
2022-12-22T16:16:52.978Z,8.17
2022-12-22T16:19:19.841Z,6.87
2022-12-22T16:21:51.972Z,4.07
2022-12-22T16:24:35.391Z,9.20
2022-12-22T16:27:03.022Z,7.20
2022-12-22T16:29:30.190Z,11.70
2022-12-22T16:32:17.581Z,6.37
2022-12-22T16:34:44.945Z,9.27
2022-12-22T16:37:11.687Z,7.43
2022-12-22T16:39:38.453Z,11.73
2022-12-22T16:42:06.549Z,8.90
2022-12-22T16:47:26.956Z,6.70
2022-12-22T16:49:53.816Z,7.70
2022-12-22T16:52:28.325Z,7.60
2022-12-22T16:54:55.204Z,10.40
2022-12-22T16:57:21.962Z,6.73
2022-12-22T16:59:48.685Z,9.67
2022-12-22T17:02:30.859Z,10.30
2022-12-22T17:05:01.235Z,14.03
2022-12-22T17:07:33.415Z,10.50
2022-12-22T17:10:02.130Z,13.03
2022-12-22T17:12:34.392Z,12.90
2022-12-22T17:15:02.256Z,10.27
2022-12-22T17:17:35.505Z,7.87
2022-12-22T17:20:04.287Z,17.17
2022-12-22T17:22:34.186Z,8.87
2022-12-22T17:25:05.503Z,10.43
2022-12-22T17:27:34.712Z,10.57
2022-12-22T17:30:03.920Z,13.47
2022-12-22T17:32:30.642Z,11.80
2022-12-22T17:34:57.702Z,11.27
2022-12-22T17:37:24.452Z,15.10
2022-12-22T17:39:58.932Z,16.63
2022-12-22T17:42:26.117Z,16.13
2022-12-22T17:44:52.953Z,19.93
2022-12-22T17:47:26.921Z,26.27
2022-12-22T17:49:58.612Z,16.83
2022-12-22T17:52:27.842Z,19.70
2022-12-22T17:54:55.173Z,19.80
2022-12-22T17:57:29.599Z,19.90
2022-12-22T17:59:56.451Z,20.80
2022-12-22T18:02:25.676Z,15.53
2022-12-22T18:04:53.453Z,21.07
2022-12-22T18:07:23.897Z,20.03
2022-12-22T18:09:58.936Z,22.27
2022-12-22T18:12:25.952Z,24.43
2022-12-22T18:14:53.116Z,20.70
2022-12-22T18:17:34.918Z,22.23
2022-12-22T18:20:02.843Z,17.97
2022-12-22T18:22:29.906Z,18.97
2022-12-22T18:24:57.637Z,22.00
2022-12-22T18:27:24.761Z,22.37
2022-12-22T18:29:51.618Z,20.23
2022-12-22T18:32:26.409Z,20.17
2022-12-22T18:34:54.632Z,25.80
2022-12-22T18:37:21.522Z,29.23
2022-12-22T18:39:48.373Z,21.07
2022-12-22T18:42:23.547Z,26.70
2022-12-22T18:44:51.575Z,25.83
2022-12-22T18:47:18.928Z,30.13
2022-12-22T18:49:46.387Z,28.80
2022-12-22T18:52:19.226Z,23.40
2022-12-22T18:54:46.843Z,30.30
2022-12-22T18:57:19.425Z,18.97
2022-12-22T18:59:48.091Z,21.80
2022-12-22T19:02:26.492Z,32.60
2022-12-22T19:04:55.114Z,23.67
2022-12-22T19:07:25.464Z,20.90
2022-12-22T19:09:52.604Z,28.20
2022-12-22T19:12:23.101Z,24.47
2022-12-22T19:14:57.138Z,18.60
2022-12-22T19:17:28.599Z,14.67
2022-12-22T19:19:56.568Z,17.67
2022-12-22T19:22:23.570Z,23.93
2022-12-22T19:24:51.471Z,18.80
2022-12-22T19:27:27.203Z,17.30
2022-12-22T19:30:03.501Z,20.10
2022-12-22T19:32:41.723Z,14.63
2022-12-22T19:35:24.490Z,15.20
2022-12-22T19:37:53.394Z,24.10
2022-12-22T19:40:27.541Z,14.23
2022-12-22T19:42:57.322Z,9.07
2022-12-22T19:45:36.763Z,14.77
2022-12-22T19:48:16.186Z,14.93
2022-12-22T19:50:42.903Z,14.13
2022-12-22T19:53:11.455Z,7.93
2022-12-22T19:55:44.015Z,10.00
2022-12-22T19:58:25.613Z,8.57
2022-12-22T20:00:53.205Z,7.53
2022-12-22T20:03:26.113Z,6.50
2022-12-22T20:05:53.171Z,10.17
2022-12-22T20:08:19.964Z,7.70
2022-12-22T20:10:49.565Z,11.37
2022-12-22T20:13:21.695Z,7.83
2022-12-22T20:15:49.421Z,8.87
2022-12-22T20:18:30.091Z,6.47
2022-12-22T20:20:59.770Z,8.97
2022-12-22T20:23:30.047Z,10.13
2022-12-22T20:26:08.270Z,8.00
2022-12-22T20:28:39.592Z,7.67
2022-12-22T20:31:11.885Z,8.20
2022-12-22T20:33:38.751Z,10.63
2022-12-22T20:36:20.682Z,10.43
2022-12-22T20:38:52.175Z,5.10
2022-12-22T20:41:20.472Z,7.53
2022-12-22T20:43:47.675Z,7.23
2022-12-22T20:46:22.868Z,5.27
2022-12-22T20:49:01.506Z,6.00
2022-12-22T20:51:32.654Z,5.93
2022-12-22T20:54:00.388Z,4.10
2022-12-22T20:56:38.044Z,7.63
2022-12-22T20:59:22.159Z,14.27
2022-12-22T21:01:52.311Z,10.47
2022-12-22T21:04:19.377Z,6.43
2022-12-22T21:06:51.842Z,5.37
2022-12-22T21:09:19.469Z,5.57
2022-12-22T21:11:46.451Z,8.53
2022-12-22T21:14:14.292Z,4.33
2022-12-22T21:16:42.447Z,9.70
2022-12-22T21:19:17.121Z,4.40
2022-12-22T21:21:44.100Z,11.60
2022-12-22T21:24:10.886Z,4.60
2022-12-22T21:26:42.847Z,6.07
2022-12-22T21:29:20.044Z,4.93
2022-12-22T21:31:46.733Z,4.67
2022-12-22T21:34:13.540Z,4.53
2022-12-22T21:36:43.933Z,6.57
2022-12-22T21:39:37.563Z,5.77
2022-12-22T21:42:05.214Z,6.40
2022-12-22T21:44:35.114Z,6.00
2022-12-22T21:47:02.288Z,4.57
2022-12-22T21:49:32.199Z,6.33
2022-12-22T21:51:59.247Z,6.83
2022-12-22T21:54:27.678Z,8.77
2022-12-22T21:56:54.947Z,7.70
2022-12-22T21:59:26.446Z,7.43
2022-12-22T22:01:53.785Z,6.07
2022-12-22T22:04:22.157Z,3.23
2022-12-22T22:06:49.280Z,8.13
2022-12-22T22:09:16.070Z,6.70
2022-12-22T22:12:01.592Z,6.80
2022-12-22T22:14:28.383Z,5.03
2022-12-22T22:16:55.196Z,4.40
2022-12-22T22:19:22.053Z,6.27
2022-12-22T22:21:48.892Z,4.00
2022-12-22T22:24:15.718Z,6.50
2022-12-22T22:26:46.193Z,6.23
2022-12-22T22:29:13.086Z,5.43
2022-12-22T22:31:41.506Z,6.27
2022-12-22T22:34:08.994Z,4.60
2022-12-22T22:36:35.801Z,5.20
2022-12-22T22:39:02.894Z,6.83
2022-12-22T22:41:32.336Z,4.90
2022-12-22T22:44:02.036Z,2.10
2022-12-22T22:46:28.837Z,1.63
2022-12-22T22:48:58.433Z,4.43
2022-12-22T22:51:25.542Z,3.17
2022-12-22T22:53:52.248Z,2.57
2022-12-22T22:56:18.994Z,5.30
2022-12-22T22:58:45.727Z,2.20
2022-12-22T23:01:12.465Z,2.90
2022-12-22T23:03:39.382Z,4.90
2022-12-22T23:06:10.754Z,3.20
2022-12-22T23:08:38.073Z,4.20
2022-12-22T23:11:06.173Z,2.07
2022-12-22T23:13:33.065Z,2.53
2022-12-22T23:16:03.473Z,2.23
2022-12-22T23:18:32.060Z,1.60
2022-12-22T23:21:01.404Z,1.53
2022-12-22T23:23:30.041Z,2.23
2022-12-22T23:25:56.847Z,1.87
2022-12-22T23:28:23.817Z,3.77
2022-12-22T23:30:52.814Z,4.63
2022-12-22T23:33:20.630Z,1.63
2022-12-22T23:35:49.897Z,3.13
2022-12-22T23:38:20.816Z,4.50
2022-12-22T23:40:53.498Z,2.10
2022-12-22T23:43:21.444Z,2.67
2022-12-22T23:45:48.203Z,2.80
2022-12-22T23:48:14.975Z,2.10
2022-12-22T23:50:45.184Z,2.83
2022-12-22T23:53:11.921Z,3.30
2022-12-22T23:55:47.036Z,2.57
2022-12-22T23:58:15.101Z,2.77
